createdAt,value
2022-11-26T00:21:49.542Z,84.75
2022-11-26T00:24:29.013Z,84.73
2022-11-26T00:51:04.418Z,84.33
2022-11-26T00:53:43.903Z,84.75
2022-11-26T00:56:19.837Z,84.81
2022-11-26T01:02:10.715Z,84.81
2022-11-26T01:04:50.323Z,85.11
2022-11-26T01:07:19.074Z,85.09
2022-11-26T01:09:49.062Z,84.74
2022-11-26T01:18:56.600Z,84.64
2022-11-26T01:21:27.860Z,85.02
2022-11-26T01:23:56.222Z,84.95
2022-11-26T01:26:27.402Z,84.84
2022-11-26T01:28:56.183Z,84.61
2022-11-26T01:31:27.076Z,84.58
2022-11-26T01:33:56.565Z,84.77
2022-11-26T01:37:20.701Z,84.76
2022-11-26T01:39:48.261Z,84.64
2022-11-26T01:42:33.221Z,84.73
2022-11-26T01:45:02.426Z,84.61
2022-11-26T01:47:34.301Z,84.77
2022-11-26T01:50:29.161Z,84.90
2022-11-26T01:53:34.030Z,84.77
2022-11-26T01:56:46.413Z,84.93
2022-11-26T02:02:58.455Z,84.63
2022-11-26T02:05:31.631Z,84.52
2022-11-26T02:08:03.400Z,84.71
2022-11-26T02:10:35.491Z,84.56
2022-11-26T02:16:47.067Z,84.76
2022-11-26T02:19:17.565Z,84.26
2022-11-26T02:21:57.093Z,83.80
2022-11-26T02:24:41.266Z,84.32
2022-11-26T02:27:18.633Z,84.34
2022-11-26T02:30:06.643Z,84.32
2022-11-26T02:32:50.936Z,84.20
2022-11-26T02:35:51.017Z,84.43
2022-11-26T02:42:04.994Z,84.53
2022-11-26T02:44:45.531Z,84.74
2022-11-26T02:47:18.441Z,84.92
2022-11-26T02:49:51.330Z,84.96
2022-11-26T02:52:21.652Z,84.84
2022-11-26T02:54:50.787Z,84.65
2022-11-26T02:57:23.932Z,84.67
2022-11-26T02:59:54.652Z,84.78
2022-11-26T03:02:37.065Z,84.73
2022-11-26T03:05:09.349Z,84.44
2022-11-26T03:07:42.087Z,84.69
2022-11-26T03:10:14.151Z,84.94
2022-11-26T03:12:45.651Z,84.69
2022-11-26T03:15:17.218Z,84.82
2022-11-26T03:17:48.133Z,84.88
2022-11-26T03:20:20.283Z,84.54
2022-11-26T03:22:48.489Z,84.42
2022-11-26T06:45:50.900Z,84.94
2022-11-26T07:05:00.285Z,84.55
2022-11-26T07:07:39.714Z,84.17
2022-11-26T07:30:04.965Z,84.33
2022-11-26T07:33:23.677Z,84.38
2022-11-26T07:59:56.102Z,84.50
2022-11-26T08:19:36.506Z,84.48
2022-11-26T08:25:26.595Z,84.45
2022-11-26T08:31:47.923Z,84.40
2022-11-26T08:34:35.064Z,84.45
2022-11-26T08:37:15.591Z,84.53
2022-11-26T08:40:00.597Z,84.46
2022-11-26T08:42:41.995Z,84.55
2022-11-26T08:45:10.662Z,84.62
2022-11-26T08:47:43.592Z,84.44
2022-11-26T08:50:13.916Z,84.43
2022-11-26T08:52:44.184Z,84.34
2022-11-26T08:55:12.114Z,84.25
2022-11-26T08:57:42.195Z,84.30
2022-11-26T09:00:14.301Z,84.17
2022-11-26T09:02:43.839Z,84.41
2022-11-26T09:05:16.065Z,84.00
2022-11-26T09:07:48.927Z,84.05
2022-11-26T09:10:23.692Z,84.14
2022-11-26T09:12:53.943Z,83.93
2022-11-26T09:15:23.866Z,83.92
2022-11-26T09:17:51.755Z,84.02
2022-11-26T09:20:19.735Z,83.74
2022-11-26T09:22:47.548Z,83.64
2022-11-26T09:25:17.408Z,83.77
2022-11-26T09:27:46.764Z,83.92
2022-11-26T09:30:16.713Z,84.02
2022-11-26T09:32:46.434Z,83.86
2022-11-26T09:35:14.646Z,84.11
2022-11-26T09:37:51.262Z,84.16
2022-11-26T09:40:20.688Z,84.04
2022-11-26T09:43:01.956Z,84.17
2022-11-26T09:45:41.944Z,84.05
2022-11-26T09:48:19.353Z,84.04
2022-11-26T09:51:06.555Z,84.00
2022-11-26T09:53:44.114Z,83.93
2022-11-26T09:56:32.266Z,83.89
2022-11-26T09:59:07.016Z,84.06
2022-11-26T10:01:46.320Z,83.89
2022-11-26T10:04:37.405Z,83.93
2022-11-26T10:07:28.458Z,84.01
2022-11-26T10:10:19.016Z,84.05
2022-11-26T10:13:19.426Z,84.03
2022-11-26T10:16:02.373Z,83.73
2022-11-26T10:19:07.714Z,83.57
2022-11-26T10:21:58.739Z,83.68
2022-11-26T10:24:54.875Z,83.75
2022-11-26T10:27:37.045Z,83.60
2022-11-26T10:30:24.615Z,83.77
2022-11-26T10:32:55.115Z,83.85
2022-11-26T10:35:29.324Z,83.65
2022-11-26T10:38:00.207Z,83.82
2022-11-26T10:41:34.898Z,83.85
2022-11-26T10:43:56.913Z,83.70
2022-11-26T10:49:51.283Z,83.66
2022-11-26T11:02:40.978Z,83.57
2022-11-26T11:06:14.657Z,83.60
2022-11-26T11:22:26.274Z,83.03
2022-11-26T11:53:43.724Z,82.89
2022-11-26T11:56:25.112Z,82.65
2022-11-26T11:59:24.587Z,82.49
2022-11-26T12:02:04.132Z,82.68
2022-11-26T12:52:31.134Z,82.93
2022-11-26T12:55:16.132Z,82.66
2022-11-26T12:58:10.772Z,82.79
2022-11-26T13:00:39.686Z,83.09
2022-11-26T13:03:21.876Z,82.98
2022-11-26T13:06:04.561Z,82.96
2022-11-26T13:08:56.283Z,82.95
2022-11-26T13:11:53.096Z,82.90
2022-11-26T13:15:01.061Z,82.98
2022-11-26T13:21:04.045Z,82.63
2022-11-26T13:24:13.506Z,82.79
2022-11-26T13:27:02.616Z,82.71
2022-11-26T13:30:15.476Z,82.53
2022-11-26T13:33:19.225Z,82.63
2022-11-26T13:36:25.045Z,82.72
2022-11-26T13:39:43.140Z,82.37
2022-11-26T13:53:55.734Z,82.54
2022-11-26T13:56:45.145Z,82.61
2022-11-26T14:14:32.642Z,82.25
2022-11-26T14:42:36.123Z,82.87
2022-11-26T14:45:22.646Z,82.49
2022-11-26T14:47:54.792Z,82.44
2022-11-26T14:50:28.625Z,82.64
2022-11-26T15:00:04.834Z,82.67
2022-11-26T15:03:03.683Z,82.72
2022-11-26T15:09:29.392Z,82.62
2022-11-26T15:13:35.553Z,82.60
2022-11-26T15:17:03.022Z,82.73
2022-11-26T15:20:36.275Z,82.68
2022-11-26T15:23:40.574Z,82.63
2022-11-26T15:36:10.475Z,82.19
2022-11-26T15:39:06.915Z,82.17
2022-11-26T15:42:22.756Z,82.29
2022-11-26T15:45:04.148Z,82.15
2022-11-26T15:47:51.325Z,82.31
2022-11-26T15:50:34.205Z,82.27
2022-11-26T15:53:14.024Z,82.31
2022-11-26T15:55:46.647Z,82.28
2022-11-26T15:58:38.033Z,82.36
2022-11-26T16:01:15.515Z,82.30
2022-11-26T16:03:46.905Z,82.41
2022-11-26T16:06:36.200Z,82.26
2022-11-26T16:09:17.738Z,82.31
2022-11-26T16:11:59.543Z,82.38
2022-11-26T16:14:40.348Z,82.31
2022-11-26T16:17:22.196Z,82.16
2022-11-26T16:19:59.679Z,82.27
2022-11-26T16:22:33.275Z,82.34
2022-11-26T16:25:18.946Z,82.50
2022-11-26T16:28:09.723Z,82.48
2022-11-26T16:30:39.665Z,82.38
2022-11-26T16:33:11.111Z,82.25
2022-11-26T16:40:22.035Z,82.52
2022-11-26T16:43:02.135Z,82.72
2022-11-26T16:45:58.577Z,82.59
2022-11-26T16:48:37.191Z,82.58
2022-11-26T16:51:06.687Z,82.52
2022-11-26T16:53:36.416Z,82.41
2022-11-26T16:56:14.734Z,82.44
2022-11-26T16:58:44.335Z,82.24
2022-11-26T17:04:47.899Z,82.58
2022-11-26T17:13:57.280Z,82.44
2022-11-26T17:26:30.066Z,82.54
2022-11-26T17:29:02.775Z,82.26
2022-11-26T17:31:35.376Z,82.65
2022-11-26T17:37:55.412Z,82.42
2022-11-26T17:40:42.740Z,82.55
2022-11-26T17:43:18.145Z,82.63
2022-11-26T17:46:01.889Z,82.59
2022-11-26T17:48:41.582Z,82.68
2022-11-26T17:51:22.037Z,82.68
2022-11-26T17:53:54.968Z,82.80
2022-11-26T17:56:24.954Z,82.73
2022-11-26T17:59:00.982Z,82.30
2022-11-26T18:01:40.512Z,82.59
2022-11-26T18:04:27.420Z,82.40
2022-11-26T18:07:14.135Z,82.64
2022-11-26T18:10:09.130Z,82.46
2022-11-26T18:13:15.521Z,82.60
2022-11-26T18:15:52.329Z,82.31
2022-11-26T18:18:29.470Z,82.46
2022-11-26T18:21:06.491Z,82.62
2022-11-26T18:23:43.156Z,82.76
2022-11-26T18:26:21.662Z,82.89
2022-11-26T18:29:07.517Z,82.77
2022-11-26T18:31:46.713Z,82.77
2022-11-26T18:34:30.870Z,82.69
2022-11-26T18:37:13.143Z,82.94
2022-11-26T18:39:55.013Z,82.74
2022-11-26T18:42:38.155Z,82.83
2022-11-26T18:45:17.626Z,82.92
2022-11-26T18:48:03.106Z,82.96
2022-11-26T18:50:37.764Z,82.97
2022-11-26T18:53:10.922Z,82.84
2022-11-26T18:55:40.135Z,83.07
2022-11-26T18:58:11.533Z,83.02
2022-11-26T19:00:54.258Z,83.08
2022-11-26T19:03:25.753Z,83.34
2022-11-26T19:06:03.578Z,83.07
2022-11-26T19:25:09.079Z,82.93
2022-11-26T19:28:07.907Z,83.25
2022-11-26T20:13:58.358Z,83.53
2022-11-26T20:33:26.444Z,83.72
2022-11-26T22:09:50.510Z,84.43
2022-11-26T22:12:47.026Z,84.16
2022-11-26T22:18:50.438Z,84.66
2022-11-26T22:21:41.583Z,84.47
2022-11-26T22:24:29.522Z,84.78
2022-11-26T22:27:37.547Z,84.74
2022-11-26T23:06:39.974Z,84.82
2022-11-26T23:12:58.223Z,84.76
2022-11-26T23:15:57.122Z,84.99
2022-11-26T23:18:45.512Z,85.06
2022-11-26T23:22:02.572Z,84.87
2022-11-26T23:28:00.708Z,85.10
2022-11-26T23:31:21.246Z,85.08
2022-11-26T23:34:29.249Z,84.93
2022-11-26T23:37:26.251Z,85.08
2022-11-26T23:46:44.350Z,85.23
2022-11-26T23:49:42.412Z,85.12
2022-11-26T23:52:59.966Z,85.18
2022-11-26T23:56:21.905Z,85.07
2022-11-26T23:59:02.633Z,84.95
